Miami, FL

4:27 AM EDT on May 05, 2015 (GMT -0400)
JA Richmond West | | Change Station
CLOSE
Current Station
Personal Weather Station
Location: Miami, FL
Elevation: 7 ft
Nearby Weather Stations

Elev 7 ft 25.61 °N, 80.43 °W | Updated 2 seconds ago

Rain
Rain
71.6 °F
Feels Like 71.6 °F
N
0.0
Wind Variable Wind from NE
Gusts 1.1 mph

Today
High -- | Low -- °F
--% Chance of Precip.
Yesterday
High -- | Low -- °F
Precip. -- in
6:42 AM 7:54 PM
Full, 98% visible
Pressure 30.05 in
Visibility 10.0 miles
Clouds Mostly Cloudy 2000 ft
Mostly Cloudy 2800 ft
Overcast 5500 ft
Dew Point 69 °F
Humidity 92%
Rainfall 0.20 in
Snow Depth Not available.
UV 0 out of 12
Pollen 4.90 out of 12
Air Quality Not available.
Flu Activity Local Activity
SPECI KTMB 050819Z AUTO 28004KT 10SM BKN020 BKN028 OVC055 22/21 A3005 RMK AO2 RAB0756E17 P0002 T02220211

More Conditions Fewer Conditions

Pressure 30.05 in
Visibility 10.0 miles
Clouds Mostly Cloudy 2000 ft
Mostly Cloudy 2800 ft
Overcast 5500 ft
Dew Point 69 °F
Humidity 92%
Rainfall 0.20 in
Snow Depth Not available.
UV 0 out of 12
Pollen 4.90 out of 12
Air Quality Not available.
Flu Activity Local Activity
SPECI KTMB 050819Z AUTO 28004KT 10SM BKN020 BKN028 OVC055 22/21 A3005 RMK AO2 RAB0756E17 P0002 T02220211

More Conditions Fewer Conditions

Nepal has a long way to go to dig out and rebuild from a devastating earthquake. We have teamed up with several charities and organizations to make contributing to the relief effort as easy as possible.
How you can help: Portlight Strategies | Red Cross
Nowcast | as of 3:17 am EDT on May 5, 2015

Scattered showers and a few thunderstorms will move west at 10 mph across the Atlantic waters. This activity will produce an occasional lightning strike along with brief heavy rainfall lowering the visibility to less than a mile. Mariners could also encounter gusty winds of 25 knots in the stronger storms with locally rough seas. The storms will tend to weaken as they move closer to shore but will still produce isolated areas on the Mainland of brief heavy downpours.

×

10-Day Weather Forecast

Almanac

Astronomy

May. 05, 2015 Rise Set
Actual Time
Civil Twilight
Nautical Twilight
Astronomical Twilight
Moon
Length of Visible Light
Length of Day
Tomorrow will be .
, % of the Moon is Illuminated

Today's Extremes

State Highs State Lows

Community

WunderPhotos

Upload Photos

1,818,814 photos uploaded!

WunderBlogs® & News

Nearby

Air Quality

  Air Quality AQ Index Pollutant
Not available.

Snow Depth

Station Depth Elevation

Earthquake Activity

City Distance Mag. Time & Date
Minimum magnitude displayed is 2.5.

Coastal Water Temperatures

Place Temperature

Stations

Nearby Weather Stations

Station Location Temp. Windchill Dew Point Humidity Wind Precip. Elev Updated Type